Time;durP1;ratioP1;P1;durP2;ratioP2;P2;SDS_P1;SDS_P2;PMS_P1;PMS_P2;Temp;Humidity;BMP_temperature;BMP_pressure;BME280_temperature;BME280_humidity;BME280_pressure;Samples;Min_cycle;Max_cycle;Signal;HPM_P1;HPM_P2
2023/12/18 00:02:44;;;;;;;4.47;3.03;;;;;;;;;;10314994;28;20045;-75
2023/12/18 00:07:48;;;;;;;4.05;2.78;;;;;;;;;;10311926;28;20048;-75
2023/12/18 00:12:52;;;;;;;4.40;2.63;;;;;;;;;;10328346;28;20060;-75
2023/12/18 00:17:55;;;;;;;2.95;2.08;;;;;;;;;;10318943;28;20057;-75
2023/12/18 00:22:59;;;;;;;3.13;2.53;;;;;;;;;;10324978;28;20062;-75
2023/12/18 00:28:04;;;;;;;7.10;3.35;;;;;;;;;;10319567;28;20535;-75
2023/12/18 00:33:08;;;;;;;6.03;3.47;;;;;;;;;;10320462;28;20038;-75
2023/12/18 00:38:11;;;;;;;4.65;3.20;;;;;;;;;;10314761;28;20055;-75
2023/12/18 00:43:16;;;;;;;6.97;3.35;;;;;;;;;;10315913;28;20042;-75
2023/12/18 00:48:19;;;;;;;6.28;3.25;;;;;;;;;;10321173;28;20050;-75
2023/12/18 00:53:22;;;;;;;4.57;2.63;;;;;;;;;;10315169;28;20042;-75
2023/12/18 00:58:27;;;;;;;6.72;3.50;;;;;;;;;;10321349;28;20054;-75
2023/12/18 01:03:31;;;;;;;3.67;2.67;;;;;;;;;;10318054;28;20050;-75
2023/12/18 01:08:34;;;;;;;4.45;2.72;;;;;;;;;;10308183;28;20078;-75
2023/12/18 01:13:40;;;;;;;4.95;2.80;;;;;;;;;;10315715;28;20038;-75
2023/12/18 01:18:43;;;;;;;3.10;2.03;;;;;;;;;;10313831;28;20427;-74
2023/12/18 01:23:46;;;;;;;2.50;1.90;;;;;;;;;;10319849;28;20034;-74
2023/12/18 01:28:51;;;;;;;3.90;2.15;;;;;;;;;;10314619;28;20046;-75
2023/12/18 01:33:55;;;;;;;3.25;2.08;;;;;;;;;;10324127;28;20050;-75
2023/12/18 01:38:58;;;;;;;4.40;2.78;;;;;;;;;;10317522;28;20617;-75
2023/12/18 01:44:02;;;;;;;3.10;2.25;;;;;;;;;;10311613;28;20053;-74
2023/12/18 01:49:08;;;;;;;3.25;2.22;;;;;;;;;;10314370;28;20728;-74
2023/12/18 01:54:11;;;;;;;3.22;1.95;;;;;;;;;;10317620;28;20042;-75
2023/12/18 01:59:16;;;;;;;3.33;2.08;;;;;;;;;;10319153;28;20408;-75
2023/12/18 02:04:20;;;;;;;1.98;1.65;;;;;;;;;;10320902;28;20042;-74
2023/12/18 02:09:23;;;;;;;2.67;2.13;;;;;;;;;;10320812;28;20126;-75
2023/12/18 02:14:28;;;;;;;2.50;2.00;;;;;;;;;;10316517;28;20056;-75
2023/12/18 02:19:32;;;;;;;5.38;2.20;;;;;;;;;;10318755;28;20046;-75
2023/12/18 02:24:36;;;;;;;3.58;2.22;;;;;;;;;;10318683;28;20057;-75
2023/12/18 02:29:40;;;;;;;4.47;2.72;;;;;;;;;;10313421;28;20050;-74
2023/12/18 02:34:43;;;;;;;3.90;2.40;;;;;;;;;;10315522;28;20043;-75
2023/12/18 02:39:48;;;;;;;4.40;2.55;;;;;;;;;;10314102;28;20688;-74
2023/12/18 02:44:51;;;;;;;4.05;2.60;;;;;;;;;;10308687;28;20052;-75
2023/12/18 02:49:54;;;;;;;3.55;2.40;;;;;;;;;;10302809;28;20586;-74
2023/12/18 02:55:00;;;;;;;3.90;2.58;;;;;;;;;;10317911;28;20407;-74
2023/12/18 03:00:04;;;;;;;4.03;2.23;;;;;;;;;;10311700;28;20061;-74
2023/12/18 03:05:08;;;;;;;3.78;2.47;;;;;;;;;;10315328;28;20093;-74
2023/12/18 03:10:13;;;;;;;2.42;2.05;;;;;;;;;;10315775;28;20121;-74
2023/12/18 03:15:16;;;;;;;3.92;2.40;;;;;;;;;;10310158;28;20034;-73
2023/12/18 03:20:19;;;;;;;3.17;2.13;;;;;;;;;;10318287;28;20035;-74
2023/12/18 03:25:23;;;;;;;3.22;2.30;;;;;;;;;;10311079;28;20052;-74
2023/12/18 03:30:27;;;;;;;2.97;2.05;;;;;;;;;;10314352;28;20046;-74
2023/12/18 03:35:30;;;;;;;2.40;1.83;;;;;;;;;;10322639;28;20057;-74
2023/12/18 03:40:34;;;;;;;3.10;2.13;;;;;;;;;;10315080;28;20076;-74
2023/12/18 03:45:38;;;;;;;3.00;2.22;;;;;;;;;;10313377;28;20048;-74
2023/12/18 03:50:41;;;;;;;2.63;1.90;;;;;;;;;;10307487;28;20444;-74
2023/12/18 03:55:45;;;;;;;2.63;2.15;;;;;;;;;;10316923;28;20611;-74
2023/12/18 04:00:49;;;;;;;4.63;3.20;;;;;;;;;;10326276;28;20045;-74
2023/12/18 04:05:53;;;;;;;3.58;2.83;;;;;;;;;;10301801;28;20121;-74
2023/12/18 04:10:57;;;;;;;4.10;2.65;;;;;;;;;;10312367;28;20047;-74
2023/12/18 04:16:01;;;;;;;3.85;2.38;;;;;;;;;;10310998;28;20419;-74
2023/12/18 04:21:04;;;;;;;4.13;2.25;;;;;;;;;;10311150;28;20050;-74
2023/12/18 04:26:09;;;;;;;3.80;1.90;;;;;;;;;;10311764;28;20578;-74
2023/12/18 04:31:12;;;;;;;2.55;2.00;;;;;;;;;;10308714;28;20217;-74
2023/12/18 04:36:16;;;;;;;2.72;1.70;;;;;;;;;;10310499;28;20051;-74
2023/12/18 04:41:22;;;;;;;2.50;1.88;;;;;;;;;;10305159;28;20043;-74
2023/12/18 04:46:25;;;;;;;3.33;2.15;;;;;;;;;;10311043;28;20050;-74
2023/12/18 04:51:28;;;;;;;1.85;1.63;;;;;;;;;;10310711;28;20038;-74
2023/12/18 04:56:33;;;;;;;1.80;1.70;;;;;;;;;;10316407;28;20144;-74
2023/12/18 05:01:36;;;;;;;2.50;1.98;;;;;;;;;;10317682;28;20037;-74
2023/12/18 05:06:40;;;;;;;2.35;2.00;;;;;;;;;;10316017;28;20053;-74
2023/12/18 05:11:45;;;;;;;2.20;1.90;;;;;;;;;;10324732;28;20445;-74
2023/12/18 05:16:48;;;;;;;2.58;1.75;;;;;;;;;;10317157;28;20169;-74
2023/12/18 05:21:52;;;;;;;1.98;1.60;;;;;;;;;;10318192;28;20031;-74
2023/12/18 05:26:56;;;;;;;2.45;1.83;;;;;;;;;;10316609;28;20043;-74
2023/12/18 05:31:59;;;;;;;3.55;2.53;;;;;;;;;;10324372;28;20057;-74
2023/12/18 05:37:03;;;;;;;3.22;2.30;;;;;;;;;;10319172;28;20049;-74
2023/12/18 05:42:07;;;;;;;5.00;2.17;;;;;;;;;;10311038;28;20054;-74
2023/12/18 05:47:11;;;;;;;2.55;2.20;;;;;;;;;;10324686;28;20065;-73
2023/12/18 05:52:14;;;;;;;3.28;2.47;;;;;;;;;;10324771;28;20050;-74
2023/12/18 05:57:19;;;;;;;3.58;2.17;;;;;;;;;;10348008;23;20122;-74
2023/12/18 06:02:22;;;;;;;3.78;2.17;;;;;;;;;;10324596;28;20047;-74
2023/12/18 06:07:25;;;;;;;4.57;2.90;;;;;;;;;;10314723;28;20050;-74
2023/12/18 06:12:31;;;;;;;2.28;1.90;;;;;;;;;;10314370;28;20053;-74
2023/12/18 06:17:35;;;;;;;4.25;2.72;;;;;;;;;;10314183;28;20049;-74
2023/12/18 06:22:38;;;;;;;4.00;2.70;;;;;;;;;;10318369;28;20129;-74
2023/12/18 06:27:44;;;;;;;2.72;2.40;;;;;;;;;;10308216;28;20571;-74
2023/12/18 06:32:47;;;;;;;2.60;2.00;;;;;;;;;;10318864;28;20118;-74
2023/12/18 06:37:50;;;;;;;2.85;2.13;;;;;;;;;;10321768;28;20543;-74
2023/12/18 06:42:55;;;;;;;2.50;1.83;;;;;;;;;;10312869;28;20049;-74
2023/12/18 06:47:58;;;;;;;2.70;2.17;;;;;;;;;;10306971;28;20133;-74
2023/12/18 06:53:02;;;;;;;2.92;1.95;;;;;;;;;;10310775;28;20061;-74
2023/12/18 06:58:07;;;;;;;1.75;1.52;;;;;;;;;;10309122;28;20134;-74
2023/12/18 07:03:10;;;;;;;2.30;1.58;;;;;;;;;;10310949;28;20200;-74
2023/12/18 07:08:13;;;;;;;2.75;2.00;;;;;;;;;;10321362;28;20058;-74
2023/12/18 07:13:18;;;;;;;2.55;1.88;;;;;;;;;;10314095;28;20034;-74
2023/12/18 07:18:21;;;;;;;3.33;2.10;;;;;;;;;;10313425;28;20062;-74
2023/12/18 07:23:25;;;;;;;2.70;2.03;;;;;;;;;;10311934;28;20522;-74
2023/12/18 07:28:29;;;;;;;2.53;2.05;;;;;;;;;;10308456;28;20050;-74
2023/12/18 07:33:33;;;;;;;3.28;2.03;;;;;;;;;;10312194;28;20045;-74
2023/12/18 07:38:36;;;;;;;2.63;2.13;;;;;;;;;;10323251;28;20050;-74
2023/12/18 07:43:40;;;;;;;4.40;3.13;;;;;;;;;;10312659;28;20060;-74
2023/12/18 07:48:48;;;;;;;4.55;2.85;;;;;;;;;;10294390;28;20046;-74
2023/12/18 07:53:51;;;;;;;9.07;4.60;;;;;;;;;;10314017;28;20050;-74
2023/12/18 07:58:55;;;;;;;4.63;3.70;;;;;;;;;;10321888;28;20042;-74
2023/12/18 08:03:59;;;;;;;5.43;3.40;;;;;;;;;;10318450;28;20044;-74
2023/12/18 08:09:02;;;;;;;3.30;2.47;;;;;;;;;;10314978;28;20050;-74
2023/12/18 08:14:07;;;;;;;4.18;3.22;;;;;;;;;;10321348;28;20057;-74
2023/12/18 08:19:10;;;;;;;5.30;3.17;;;;;;;;;;10314137;28;20496;-74
2023/12/18 08:24:14;;;;;;;4.60;3.28;;;;;;;;;;10300356;28;20046;-74
2023/12/18 08:29:18;;;;;;;5.47;3.40;;;;;;;;;;10327346;28;20120;-74
2023/12/18 08:34:22;;;;;;;7.95;4.65;;;;;;;;;;10323315;28;20611;-75
2023/12/18 08:39:25;;;;;;;7.50;4.32;;;;;;;;;;10325903;28;20072;-74
2023/12/18 08:44:30;;;;;;;8.80;5.05;;;;;;;;;;10328087;28;20141;-74
2023/12/18 08:49:33;;;;;;;13.82;7.10;;;;;;;;;;10313987;28;20060;-75
2023/12/18 08:54:36;;;;;;;12.10;6.90;;;;;;;;;;10328427;28;20554;-74
2023/12/18 08:59:41;;;;;;;10.25;5.97;;;;;;;;;;10309819;28;20049;-74
2023/12/18 09:04:44;;;;;;;8.60;5.35;;;;;;;;;;10313033;28;20049;-75
2023/12/18 09:09:47;;;;;;;8.35;4.78;;;;;;;;;;10305665;28;20042;-75
2023/12/18 09:14:52;;;;;;;8.35;4.57;;;;;;;;;;10326656;28;20824;-75
2023/12/18 09:19:55;;;;;;;7.85;4.45;;;;;;;;;;10330208;28;20054;-75
2023/12/18 09:24:58;;;;;;;8.75;4.88;;;;;;;;;;10329790;28;20133;-75
2023/12/18 09:30:05;;;;;;;8.07;4.28;;;;;;;;;;10329485;28;20046;-75
2023/12/18 09:35:08;;;;;;;8.07;5.03;;;;;;;;;;10327561;28;20082;-75
2023/12/18 09:40:12;;;;;;;7.80;4.03;;;;;;;;;;10325006;28;20669;-75
2023/12/18 09:45:18;;;;;;;6.55;4.05;;;;;;;;;;10314641;28;20130;-75
2023/12/18 09:50:21;;;;;;;7.57;4.03;;;;;;;;;;10326500;28;20076;-75
2023/12/18 09:55:25;;;;;;;7.88;4.38;;;;;;;;;;10324518;28;20292;-75
2023/12/18 10:00:30;;;;;;;9.15;5.25;;;;;;;;;;10325491;28;20053;-75
2023/12/18 10:05:34;;;;;;;11.95;5.43;;;;;;;;;;10326477;28;20105;-75
2023/12/18 10:10:37;;;;;;;10.77;5.55;;;;;;;;;;10324962;28;20419;-76
2023/12/18 10:15:42;;;;;;;14.98;7.65;;;;;;;;;;10325597;28;20073;-75
2023/12/18 10:20:49;;;;;;;11.60;5.93;;;;;;;;;;10308612;28;20073;-76
2023/12/18 10:25:53;;;;;;;14.10;5.95;;;;;;;;;;10324590;28;20504;-75
2023/12/18 10:30:57;;;;;;;11.25;6.15;;;;;;;;;;10324990;28;20062;-76
2023/12/18 10:36:01;;;;;;;8.90;4.55;;;;;;;;;;10324547;28;20054;-75
2023/12/18 10:41:05;;;;;;;7.63;4.07;;;;;;;;;;10323904;28;20066;-75
2023/12/18 10:46:11;;;;;;;7.50;3.47;;;;;;;;;;10324465;28;20046;-75
2023/12/18 10:51:17;;;;;;;5.43;3.10;;;;;;;;;;10325101;28;20078;-75
2023/12/18 10:56:22;;;;;;;4.10;2.72;;;;;;;;;;10323860;28;20056;-76
2023/12/18 11:01:28;;;;;;;5.63;3.17;;;;;;;;;;10318824;28;20418;-75
2023/12/18 11:06:32;;;;;;;3.78;2.30;;;;;;;;;;10322669;28;20488;-76
2023/12/18 11:11:38;;;;;;;2.40;2.08;;;;;;;;;;10321019;28;20583;-76
2023/12/18 11:16:55;;;;;;;5.60;3.03;;;;;;;;;;10322595;28;20528;-75
2023/12/18 11:22:04;;;;;;;4.20;2.70;;;;;;;;;;10322742;28;20416;-76
2023/12/18 11:27:08;;;;;;;3.22;2.58;;;;;;;;;;10322886;28;20038;-76
2023/12/18 11:32:46;;;;;;;6.10;3.80;;;;;;;;;;10322191;28;20101;-75
2023/12/18 11:37:51;;;;;;;3.72;2.58;;;;;;;;;;10321852;28;20050;-75
2023/12/18 11:42:54;;;;;;;3.97;2.78;;;;;;;;;;10321570;28;20527;-75
2023/12/18 11:48:02;;;;;;;4.55;3.42;;;;;;;;;;10320613;28;20050;-74
2023/12/18 11:53:18;;;;;;;4.70;3.53;;;;;;;;;;10321876;28;20066;-75
2023/12/18 11:58:25;;;;;;;3.40;2.78;;;;;;;;;;10317617;28;20043;-75
2023/12/18 12:03:31;;;;;;;4.53;3.42;;;;;;;;;;10316326;28;20515;-75
2023/12/18 12:08:34;;;;;;;;;;;;;;;;;;10310587;28;20058;-75
2023/12/18 12:13:37;;;;;;;9.07;5.97;;;;;;;;;;10319184;28;19952;-74
2023/12/18 12:18:47;;;;;;;5.38;3.38;;;;;;;;;;10320803;28;20042;-74
2023/12/18 12:23:50;;;;;;;3.42;2.53;;;;;;;;;;10321858;28;20054;-75
2023/12/18 12:28:53;;;;;;;2.35;1.92;;;;;;;;;;10321453;28;20050;-75
2023/12/18 12:33:58;;;;;;;3.08;2.25;;;;;;;;;;10321546;28;20388;-74
2023/12/18 12:39:04;;;;;;;2.72;2.20;;;;;;;;;;10318289;28;20051;-74
2023/12/18 12:44:08;;;;;;;;;;;;;;;;;;10321508;28;20746;-74
2023/12/18 12:49:13;;;;;;;3.45;2.08;;;;;;;;;;10318982;28;20346;-74
2023/12/18 12:54:16;;;;;;;2.08;1.88;;;;;;;;;;10321382;28;20495;-75
2023/12/18 12:59:20;;;;;;;3.35;2.30;;;;;;;;;;10303268;28;20522;-75
2023/12/18 13:04:24;;;;;;;3.28;2.40;;;;;;;;;;10323323;28;20042;-74
2023/12/18 13:09:28;;;;;;;3.65;2.53;;;;;;;;;;10320112;28;20042;-75
2023/12/18 13:14:31;;;;;;;5.10;3.25;;;;;;;;;;10308701;28;20829;-74
2023/12/18 13:19:36;;;;;;;4.05;2.30;;;;;;;;;;10306656;28;20046;-74
2023/12/18 13:24:40;;;;;;;3.75;2.00;;;;;;;;;;10325117;28;20435;-74
2023/12/18 13:29:43;;;;;;;2.88;1.90;;;;;;;;;;10326621;28;20065;-74
2023/12/18 13:34:48;;;;;;;2.13;1.65;;;;;;;;;;10310181;28;20053;-74
2023/12/18 13:39:51;;;;;;;2.47;1.88;;;;;;;;;;10323290;28;20495;-74
2023/12/18 13:44:54;;;;;;;2.50;1.95;;;;;;;;;;10326824;28;20084;-74
2023/12/18 13:49:59;;;;;;;2.30;2.00;;;;;;;;;;10325485;28;20046;-74
2023/12/18 13:55:03;;;;;;;2.60;2.15;;;;;;;;;;10324576;28;20039;-74
2023/12/18 14:00:08;;;;;;;2.75;2.05;;;;;;;;;;10322177;28;20058;-74
2023/12/18 14:05:14;;;;;;;3.25;2.40;;;;;;;;;;10322136;28;20136;-74
2023/12/18 14:10:17;;;;;;;2.97;2.38;;;;;;;;;;10322830;28;20540;-75
2023/12/18 14:15:20;;;;;;;3.33;2.00;;;;;;;;;;10322943;28;20049;-74
2023/12/18 14:20:27;;;;;;;3.78;2.28;;;;;;;;;;10308481;28;20046;-74
2023/12/18 14:25:31;;;;;;;4.03;2.45;;;;;;;;;;10306989;28;20054;-75
2023/12/18 14:30:34;;;;;;;4.07;3.00;;;;;;;;;;10310436;28;20264;-74
2023/12/18 14:35:39;;;;;;;5.70;4.05;;;;;;;;;;10324494;28;20137;-74
2023/12/18 14:40:42;;;;;;;6.50;4.28;;;;;;;;;;10327685;28;20731;-74
2023/12/18 14:45:46;;;;;;;4.55;3.30;;;;;;;;;;10328763;28;20412;-74
2023/12/18 14:50:50;;;;;;;6.28;3.00;;;;;;;;;;10324001;28;20045;-74
2023/12/18 14:55:53;;;;;;;4.68;3.45;;;;;;;;;;10322246;28;20043;-74
2023/12/18 15:00:57;;;;;;;6.68;3.63;;;;;;;;;;10322697;28;20043;-74
2023/12/18 15:06:01;;;;;;;5.63;3.30;;;;;;;;;;10323724;28;20050;-74
2023/12/18 15:11:05;;;;;;;5.68;3.90;;;;;;;;;;10319439;28;20257;-75
2023/12/18 15:16:08;;;;;;;11.40;6.05;;;;;;;;;;10317687;28;20507;-74
2023/12/18 15:21:13;;;;;;;6.63;4.95;;;;;;;;;;10318984;28;20042;-74
2023/12/18 15:26:17;;;;;;;5.75;3.90;;;;;;;;;;10321075;28;20848;-74
2023/12/18 15:31:21;;;;;;;6.00;4.10;;;;;;;;;;10321594;28;20534;-74
2023/12/18 15:36:27;;;;;;;8.35;4.70;;;;;;;;;;10324362;28;20454;-74
2023/12/18 15:41:30;;;;;;;6.60;3.78;;;;;;;;;;10323655;28;20042;-74
2023/12/18 15:46:34;;;;;;;5.03;3.65;;;;;;;;;;10323738;28;20042;-74
2023/12/18 15:51:38;;;;;;;5.70;3.90;;;;;;;;;;10324010;28;20047;-74
2023/12/18 15:56:43;;;;;;;5.68;3.80;;;;;;;;;;10323851;28;20484;-74
2023/12/18 16:01:46;;;;;;;6.25;4.30;;;;;;;;;;10319280;28;20457;-75
2023/12/18 16:06:51;;;;;;;4.88;3.45;;;;;;;;;;10318976;28;20046;-74
2023/12/18 16:11:54;;;;;;;6.35;4.28;;;;;;;;;;10320437;28;20738;-74
2023/12/18 16:16:57;;;;;;;8.43;5.07;;;;;;;;;;10321657;28;20056;-74
2023/12/18 16:22:03;;;;;;;6.47;4.60;;;;;;;;;;10321191;28;20043;-74
2023/12/18 16:27:06;;;;;;;6.93;4.75;;;;;;;;;;10321268;28;20046;-74
2023/12/18 16:32:10;;;;;;;6.40;4.85;;;;;;;;;;10321087;28;20054;-74
2023/12/18 16:37:17;;;;;;;7.97;4.75;;;;;;;;;;10320654;28;20205;-74
2023/12/18 16:42:20;;;;;;;7.35;4.63;;;;;;;;;;10321292;28;20072;-74
2023/12/18 16:47:23;;;;;;;7.43;4.75;;;;;;;;;;10307194;28;20046;-74
2023/12/18 16:52:31;;;;;;;6.60;4.55;;;;;;;;;;10310740;28;20516;-74
2023/12/18 16:57:34;;;;;;;7.20;4.80;;;;;;;;;;10327878;28;20049;-74
2023/12/18 17:02:38;;;;;;;7.00;4.68;;;;;;;;;;10311124;28;20031;-74
2023/12/18 17:07:43;;;;;;;9.70;4.95;;;;;;;;;;10323759;28;20042;-74
2023/12/18 17:12:46;;;;;;;6.45;4.90;;;;;;;;;;10329332;28;20222;-74
2023/12/18 17:17:49;;;;;;;6.50;4.80;;;;;;;;;;10329636;28;20120;-74
2023/12/18 17:22:54;;;;;;;7.97;5.15;;;;;;;;;;10327714;28;20039;-74
2023/12/18 17:27:58;;;;;;;8.55;5.90;;;;;;;;;;10335725;28;20046;-74
2023/12/18 17:33:04;;;;;;;11.20;7.07;;;;;;;;;;10328921;28;20467;-75
2023/12/18 17:38:08;;;;;;;;;;;;;;;;;;10328485;28;20054;-74
2023/12/18 17:43:12;;;;;;;13.95;7.38;;;;;;;;;;10328149;28;20311;-74
2023/12/18 17:48:15;;;;;;;11.43;7.47;;;;;;;;;;10329262;28;20061;-74
2023/12/18 17:53:20;;;;;;;13.82;8.18;;;;;;;;;;10325588;28;20046;-74
2023/12/18 17:58:23;;;;;;;20.05;8.73;;;;;;;;;;10351055;23;20042;-74
2023/12/18 18:03:26;;;;;;;30.63;12.57;;;;;;;;;;10330379;28;20059;-74
2023/12/18 18:08:31;;;;;;;26.80;12.27;;;;;;;;;;10325505;28;20530;-74
2023/12/18 18:13:34;;;;;;;17.38;9.30;;;;;;;;;;10318184;28;20510;-74
2023/12/18 18:18:37;;;;;;;14.52;7.50;;;;;;;;;;10330351;28;20050;-74
2023/12/18 18:23:42;;;;;;;8.85;5.22;;;;;;;;;;10321387;28;20046;-74
2023/12/18 18:28:45;;;;;;;10.63;6.45;;;;;;;;;;10321899;28;20511;-74
2023/12/18 18:33:48;;;;;;;9.02;6.28;;;;;;;;;;10321388;28;20125;-74
2023/12/18 18:38:53;;;;;;;14.13;7.50;;;;;;;;;;10328561;28;20044;-74
2023/12/18 18:43:56;;;;;;;10.32;6.15;;;;;;;;;;10320598;28;20057;-73
2023/12/18 18:49:00;;;;;;;7.78;5.50;;;;;;;;;;10324839;28;20038;-74
2023/12/18 18:54:05;;;;;;;8.27;5.63;;;;;;;;;;10321337;28;20057;-74
2023/12/18 18:59:08;;;;;;;7.43;5.22;;;;;;;;;;10314750;28;20667;-74
2023/12/18 19:04:13;;;;;;;8.05;5.13;;;;;;;;;;10312117;28;20506;-74
2023/12/18 19:09:17;;;;;;;7.88;5.28;;;;;;;;;;10314428;28;20050;-74
2023/12/18 19:14:21;;;;;;;9.45;5.32;;;;;;;;;;10313839;28;20039;-74
2023/12/18 19:19:24;;;;;;;9.88;6.10;;;;;;;;;;10311348;28;20034;-74
2023/12/18 19:24:28;;;;;;;8.07;5.35;;;;;;;;;;10310786;28;20050;-74
2023/12/18 19:29:32;;;;;;;11.25;7.10;;;;;;;;;;10305637;28;20130;-74
2023/12/18 19:34:35;;;;;;;11.05;6.60;;;;;;;;;;10298629;28;20054;-74
2023/12/18 19:39:40;;;;;;;10.55;6.95;;;;;;;;;;10314634;28;20030;-74
2023/12/18 19:44:46;;;;;;;10.18;6.43;;;;;;;;;;10312692;28;20126;-74
2023/12/18 19:49:49;;;;;;;9.70;6.30;;;;;;;;;;10316271;28;20042;-74
2023/12/18 19:54:54;;;;;;;10.50;6.65;;;;;;;;;;10324078;28;20500;-74
2023/12/18 19:59:57;;;;;;;8.85;6.53;;;;;;;;;;10308852;28;20061;-74
2023/12/18 20:05:00;;;;;;;12.18;7.07;;;;;;;;;;10316501;28;20179;-74
2023/12/18 20:10:06;;;;;;;11.55;7.22;;;;;;;;;;10325173;28;20133;-74
2023/12/18 20:15:10;;;;;;;10.07;6.60;;;;;;;;;;10331474;28;20042;-74
2023/12/18 20:20:13;;;;;;;10.88;7.75;;;;;;;;;;10319309;28;20089;-74
2023/12/18 20:25:18;;;;;;;13.63;8.25;;;;;;;;;;10330146;28;20039;-74
2023/12/18 20:30:21;;;;;;;10.82;7.18;;;;;;;;;;10314090;28;20043;-74
2023/12/18 20:35:24;;;;;;;12.13;7.75;;;;;;;;;;10318788;28;20058;-75
2023/12/18 20:40:29;;;;;;;11.75;7.30;;;;;;;;;;10322185;28;20149;-74
2023/12/18 20:45:32;;;;;;;11.88;7.38;;;;;;;;;;10327979;28;20129;-74
2023/12/18 20:50:36;;;;;;;12.10;7.45;;;;;;;;;;10337129;28;20128;-74
2023/12/18 20:55:41;;;;;;;11.70;7.57;;;;;;;;;;10333970;28;20138;-74
2023/12/18 21:00:44;;;;;;;13.50;8.07;;;;;;;;;;10337913;28;20057;-74
2023/12/18 21:05:48;;;;;;;12.07;7.03;;;;;;;;;;10320586;28;20110;-74
2023/12/18 21:10:52;;;;;;;11.27;6.68;;;;;;;;;;10322237;28;20562;-74
2023/12/18 21:15:56;;;;;;;16.48;8.43;;;;;;;;;;10317283;28;20403;-74
2023/12/18 21:21:01;;;;;;;15.63;8.40;;;;;;;;;;10318475;28;20046;-74
2023/12/18 21:26:06;;;;;;;12.55;7.03;;;;;;;;;;10321227;28;20050;-74
2023/12/18 21:31:11;;;;;;;18.98;10.45;;;;;;;;;;10326753;28;20148;-74
2023/12/18 21:36:16;;;;;;;11.75;7.53;;;;;;;;;;10328676;28;20042;-75
2023/12/18 21:41:20;;;;;;;10.20;6.13;;;;;;;;;;10323772;28;20058;-74
2023/12/18 21:46:24;;;;;;;7.78;4.97;;;;;;;;;;10328028;28;20121;-74
2023/12/18 21:51:28;;;;;;;7.95;5.32;;;;;;;;;;10327253;28;20659;-74
2023/12/18 21:56:34;;;;;;;7.15;4.80;;;;;;;;;;10325346;28;20144;-74
2023/12/18 22:01:37;;;;;;;8.07;4.88;;;;;;;;;;10321306;28;20046;-75
2023/12/18 22:06:41;;;;;;;9.15;5.75;;;;;;;;;;10324665;28;20077;-75
2023/12/18 22:11:45;;;;;;;11.48;5.47;;;;;;;;;;10320613;28;20117;-75
2023/12/18 22:16:49;;;;;;;14.77;8.50;;;;;;;;;;10323622;28;20137;-75
2023/12/18 22:21:52;;;;;;;14.45;9.00;;;;;;;;;;10314134;28;20137;-75
2023/12/18 22:27:01;;;;;;;10.27;6.32;;;;;;;;;;10319939;28;20577;-75
2023/12/18 22:32:05;;;;;;;9.57;5.90;;;;;;;;;;10323833;28;20065;-74
2023/12/18 22:37:08;;;;;;;8.73;5.63;;;;;;;;;;10320016;28;20043;-75
2023/12/18 22:42:13;;;;;;;7.13;4.88;;;;;;;;;;10323922;28;20048;-75
2023/12/18 22:47:16;;;;;;;10.43;6.47;;;;;;;;;;10322440;28;20046;-75
2023/12/18 22:52:19;;;;;;;7.97;5.07;;;;;;;;;;10323081;28;20435;-74
2023/12/18 22:57:24;;;;;;;8.82;6.00;;;;;;;;;;10320931;28;20411;-75
2023/12/18 23:02:27;;;;;;;9.55;5.32;;;;;;;;;;10319721;28;20065;-75
2023/12/18 23:07:30;;;;;;;7.57;4.70;;;;;;;;;;10320507;28;20049;-74
2023/12/18 23:12:35;;;;;;;7.70;5.13;;;;;;;;;;10322661;28;20058;-75
2023/12/18 23:17:38;;;;;;;7.50;4.50;;;;;;;;;;10324132;28;20062;-75
2023/12/18 23:22:42;;;;;;;7.75;4.90;;;;;;;;;;10321777;28;20147;-75
2023/12/18 23:27:46;;;;;;;7.07;4.35;;;;;;;;;;10321727;28;20135;-75
2023/12/18 23:32:49;;;;;;;8.63;5.10;;;;;;;;;;10322627;28;20049;-75
2023/12/18 23:37:53;;;;;;;8.98;5.25;;;;;;;;;;10321921;28;20132;-75
2023/12/18 23:42:57;;;;;;;9.20;5.00;;;;;;;;;;10321191;28;20485;-74
2023/12/18 23:48:01;;;;;;;9.60;5.68;;;;;;;;;;10322994;28;20054;-75
2023/12/18 23:53:04;;;;;;;7.25;4.93;;;;;;;;;;10324096;28;20046;-75
2023/12/18 23:58:10;;;;;;;10.38;5.35;;;;;;;;;;10365162;23;20046;-74
